sensor_id;sensor_type;location;lat;lon;timestamp;pressure;altitude;pressure_sealevel;temperature
25985;BMP280;66753;53.848;10.658;2023-11-21T00:11:33;101125.88;;;8.76
25985;BMP280;66753;53.848;10.658;2023-11-21T00:26:34;101153.66;;;8.74
25985;BMP280;66753;53.848;10.658;2023-11-21T00:41:38;101157.88;;;8.66
25985;BMP280;66753;53.848;10.658;2023-11-21T00:56:39;101171.19;;;8.61
25985;BMP280;66753;53.848;10.658;2023-11-21T01:11:41;101183.34;;;8.62
25985;BMP280;66753;53.848;10.658;2023-11-21T01:26:43;101198.25;;;8.58
25985;BMP280;66753;53.848;10.658;2023-11-21T01:41:46;101207.28;;;8.57
25985;BMP280;66753;53.848;10.658;2023-11-21T01:56:48;101221.84;;;8.46
25985;BMP280;66753;53.848;10.658;2023-11-21T02:11:50;101228.50;;;8.44
25985;BMP280;66753;53.848;10.658;2023-11-21T02:26:52;101246.09;;;8.48
25985;BMP280;66753;53.848;10.658;2023-11-21T02:41:54;101248.88;;;8.43
25985;BMP280;66753;53.848;10.658;2023-11-21T02:56:56;101275.41;;;8.38
25985;BMP280;66753;53.848;10.658;2023-11-21T03:11:59;101277.28;;;8.38
25985;BMP280;66753;53.848;10.658;2023-11-21T03:27:01;101295.47;;;8.39
25985;BMP280;66753;53.848;10.658;2023-11-21T03:42:02;101310.34;;;8.35
25985;BMP280;66753;53.848;10.658;2023-11-21T03:57:04;101328.84;;;8.35
25985;BMP280;66753;53.848;10.658;2023-11-21T04:12:07;101355.84;;;8.32
25985;BMP280;66753;53.848;10.658;2023-11-21T04:27:11;101360.03;;;8.33
25985;BMP280;66753;53.848;10.658;2023-11-21T04:42:13;101374.22;;;8.37
25985;BMP280;66753;53.848;10.658;2023-11-21T04:57:15;101393.19;;;8.39
25985;BMP280;66753;53.848;10.658;2023-11-21T05:12:18;101406.47;;;8.26
25985;BMP280;66753;53.848;10.658;2023-11-21T05:27:20;101429.44;;;8.25
25985;BMP280;66753;53.848;10.658;2023-11-21T05:42:22;101440.28;;;8.24
25985;BMP280;66753;53.848;10.658;2023-11-21T05:57:24;101460.63;;;8.23
25985;BMP280;66753;53.848;10.658;2023-11-21T06:12:25;101491.72;;;8.26
25985;BMP280;66753;53.848;10.658;2023-11-21T06:27:27;101516.69;;;8.34
25985;BMP280;66753;53.848;10.658;2023-11-21T06:42:28;101555.03;;;8.31
25985;BMP280;66753;53.848;10.658;2023-11-21T06:57:31;101564.41;;;8.24
25985;BMP280;66753;53.848;10.658;2023-11-21T07:12:32;101581.75;;;8.30
25985;BMP280;66753;53.848;10.658;2023-11-21T07:27:34;101605.50;;;8.30
25985;BMP280;66753;53.848;10.658;2023-11-21T07:42:37;101637.41;;;8.33
25985;BMP280;66753;53.848;10.658;2023-11-21T07:57:39;101646.00;;;8.25
25985;BMP280;66753;53.848;10.658;2023-11-21T08:12:40;101673.50;;;8.38
25985;BMP280;66753;53.848;10.658;2023-11-21T08:27:42;101687.00;;;8.36
25985;BMP280;66753;53.848;10.658;2023-11-21T08:42:44;101705.88;;;8.30
25985;BMP280;66753;53.848;10.658;2023-11-21T08:57:46;101733.75;;;8.36
25985;BMP280;66753;53.848;10.658;2023-11-21T09:12:47;101783.94;;;8.36
25985;BMP280;66753;53.848;10.658;2023-11-21T09:27:48;101791.09;;;8.03
25985;BMP280;66753;53.848;10.658;2023-11-21T09:42:54;101800.94;;;7.98
25985;BMP280;66753;53.848;10.658;2023-11-21T09:57:57;101836.19;;;8.25
25985;BMP280;66753;53.848;10.658;2023-11-21T10:13:01;101849.84;;;8.46
25985;BMP280;66753;53.848;10.658;2023-11-21T10:28:06;101837.66;;;8.63
25985;BMP280;66753;53.848;10.658;2023-11-21T10:43:08;101847.38;;;8.68
25985;BMP280;66753;53.848;10.658;2023-11-21T10:58:10;101886.88;;;9.19
25985;BMP280;66753;53.848;10.658;2023-11-21T11:13:13;101884.41;;;8.81
25985;BMP280;66753;53.848;10.658;2023-11-21T11:28:27;101891.97;;;8.56
25985;BMP280;66753;53.848;10.658;2023-11-21T11:43:42;101894.63;;;8.37
25985;BMP280;66753;53.848;10.658;2023-11-21T11:58:48;101907.78;;;8.24
25985;BMP280;66753;53.848;10.658;2023-11-21T12:13:50;101895.47;;;8.33
25985;BMP280;66753;53.848;10.658;2023-11-21T12:28:53;101913.25;;;8.46
25985;BMP280;66753;53.848;10.658;2023-11-21T12:43:55;101942.19;;;8.37
25985;BMP280;66753;53.848;10.658;2023-11-21T12:58:57;101968.00;;;8.03
25985;BMP280;66753;53.848;10.658;2023-11-21T13:13:59;101997.94;;;7.47
25985;BMP280;66753;53.848;10.658;2023-11-21T13:29:00;102014.41;;;7.62
25985;BMP280;66753;53.848;10.658;2023-11-21T13:44:05;102023.78;;;7.78
25985;BMP280;66753;53.848;10.658;2023-11-21T13:59:16;102067.63;;;7.69
25985;BMP280;66753;53.848;10.658;2023-11-21T14:14:26;102059.38;;;7.14
25985;BMP280;66753;53.848;10.658;2023-11-21T14:29:28;102073.09;;;7.16
25985;BMP280;66753;53.848;10.658;2023-11-21T14:44:31;102121.38;;;7.16
25985;BMP280;66753;53.848;10.658;2023-11-21T14:59:49;102152.00;;;7.07
25985;BMP280;66753;53.848;10.658;2023-11-21T15:14:58;102165.25;;;6.97
25985;BMP280;66753;53.848;10.658;2023-11-21T15:29:59;102182.63;;;6.88
25985;BMP280;66753;53.848;10.658;2023-11-21T15:45:01;102221.25;;;6.59
25985;BMP280;66753;53.848;10.658;2023-11-21T16:00:05;102256.25;;;6.65
25985;BMP280;66753;53.848;10.658;2023-11-21T16:15:16;102263.94;;;6.16
25985;BMP280;66753;53.848;10.658;2023-11-21T16:30:18;102292.06;;;6.01
25985;BMP280;66753;53.848;10.658;2023-11-21T16:45:23;102312.06;;;6.02
25985;BMP280;66753;53.848;10.658;2023-11-21T17:00:24;102349.97;;;6.11
25985;BMP280;66753;53.848;10.658;2023-11-21T17:15:26;102384.53;;;6.19
25985;BMP280;66753;53.848;10.658;2023-11-21T17:30:28;102386.13;;;6.30
25985;BMP280;66753;53.848;10.658;2023-11-21T17:45:30;102400.34;;;6.39
25985;BMP280;66753;53.848;10.658;2023-11-21T18:00:31;102428.47;;;6.24
25985;BMP280;66753;53.848;10.658;2023-11-21T18:15:34;102459.56;;;6.27
25985;BMP280;66753;53.848;10.658;2023-11-21T18:30:35;102477.72;;;6.18
25985;BMP280;66753;53.848;10.658;2023-11-21T18:45:37;102515.56;;;6.02
25985;BMP280;66753;53.848;10.658;2023-11-21T19:00:39;102524.41;;;5.81
25985;BMP280;66753;53.848;10.658;2023-11-21T19:15:41;102561.09;;;5.66
25985;BMP280;66753;53.848;10.658;2023-11-21T19:30:44;102592.06;;;5.27
25985;BMP280;66753;53.848;10.658;2023-11-21T19:45:45;102592.09;;;5.06
25985;BMP280;66753;53.848;10.658;2023-11-21T20:00:47;102600.09;;;5.16
25985;BMP280;66753;53.848;10.658;2023-11-21T20:15:49;102619.31;;;4.95
25985;BMP280;66753;53.848;10.658;2023-11-21T20:30:50;102630.16;;;5.03
25985;BMP280;66753;53.848;10.658;2023-11-21T20:45:52;102643.66;;;5.33
25985;BMP280;66753;53.848;10.658;2023-11-21T21:00:53;102663.34;;;5.31
25985;BMP280;66753;53.848;10.658;2023-11-21T21:15:55;102695.63;;;5.26
25985;BMP280;66753;53.848;10.658;2023-11-21T21:30:56;102702.19;;;5.24
25985;BMP280;66753;53.848;10.658;2023-11-21T21:45:58;102699.34;;;5.09
25985;BMP280;66753;53.848;10.658;2023-11-21T22:01:00;102701.97;;;4.87
25985;BMP280;66753;53.848;10.658;2023-11-21T22:16:04;102703.78;;;4.65
25985;BMP280;66753;53.848;10.658;2023-11-21T22:31:05;102705.88;;;4.30
25985;BMP280;66753;53.848;10.658;2023-11-21T22:46:07;102723.28;;;3.92
25985;BMP280;66753;53.848;10.658;2023-11-21T23:01:09;102724.03;;;3.59
25985;BMP280;66753;53.848;10.658;2023-11-21T23:16:12;102724.41;;;3.39
25985;BMP280;66753;53.848;10.658;2023-11-21T23:31:17;102726.38;;;2.98
25985;BMP280;66753;53.848;10.658;2023-11-21T23:46:18;102762.84;;;2.76
